createdAt,value
2022-08-20T00:00:15.716Z,25.65
2022-08-20T00:05:44.314Z,25.36
2022-08-20T00:10:54.953Z,25.15
2022-08-20T00:15:59.813Z,25.11
2022-08-20T00:21:08.858Z,25.11
2022-08-20T00:26:14.563Z,25.10
2022-08-20T00:31:21.565Z,24.93
2022-08-20T00:36:32.340Z,24.79
2022-08-20T00:41:36.335Z,24.73
2022-08-20T00:46:41.284Z,24.34
2022-08-20T00:51:53.298Z,24.09
2022-08-20T00:57:04.318Z,23.96
2022-08-20T01:02:14.022Z,23.84
2022-08-20T01:07:20.886Z,23.87
2022-08-20T01:12:25.486Z,23.93
2022-08-20T01:17:33.039Z,23.89
2022-08-20T01:23:18.090Z,23.62
2022-08-20T01:28:34.406Z,23.31
2022-08-20T01:33:38.140Z,23.23
2022-08-20T01:38:53.122Z,23.17
2022-08-20T01:43:59.937Z,23.14
2022-08-20T01:49:15.658Z,23.37
2022-08-20T01:54:25.995Z,23.54
2022-08-20T01:59:30.622Z,23.53
2022-08-20T02:04:34.784Z,23.57
2022-08-20T02:09:39.828Z,23.60
2022-08-20T02:14:48.414Z,23.64
2022-08-20T02:19:59.096Z,23.67
2022-08-20T02:25:02.947Z,23.66
2022-08-20T02:30:27.422Z,23.71
2022-08-20T02:35:32.416Z,23.78
2022-08-20T02:40:37.965Z,23.90
2022-08-20T02:45:44.258Z,24.03
2022-08-20T02:50:52.072Z,24.00
2022-08-20T02:55:56.705Z,23.95
2022-08-20T03:01:00.268Z,23.90
2022-08-20T03:06:03.942Z,23.95
2022-08-20T03:11:08.220Z,24.03
2022-08-20T03:16:11.895Z,24.00
2022-08-20T03:21:15.215Z,24.01
2022-08-20T03:26:18.418Z,23.98
2022-08-20T03:31:21.867Z,23.98
2022-08-20T03:36:28.318Z,24.02
2022-08-20T03:41:32.547Z,24.02
2022-08-20T03:46:36.287Z,23.83
2022-08-20T03:51:58.065Z,23.65
2022-08-20T03:57:03.790Z,23.66
2022-08-20T04:02:16.444Z,23.77
2022-08-20T04:07:27.820Z,23.80
2022-08-20T04:12:30.961Z,23.79
2022-08-20T04:17:34.125Z,23.83
2022-08-20T04:22:40.541Z,23.68
2022-08-20T04:27:44.125Z,23.49
2022-08-20T04:32:47.354Z,23.43
2022-08-20T04:38:00.854Z,23.23
2022-08-20T04:43:05.528Z,23.07
2022-08-20T04:48:14.250Z,23.20
2022-08-20T04:53:25.646Z,23.23
2022-08-20T04:58:37.068Z,23.17
2022-08-20T05:03:41.884Z,22.99
2022-08-20T05:08:46.147Z,22.77
2022-08-20T05:13:50.564Z,22.83
2022-08-20T05:18:53.737Z,22.95
2022-08-20T05:23:56.898Z,22.84
2022-08-20T05:29:00.345Z,22.70
2022-08-20T05:34:11.524Z,22.84
2022-08-20T05:39:16.534Z,22.90
2022-08-20T05:44:20.187Z,23.35
2022-08-20T05:49:23.493Z,23.76
2022-08-20T05:54:27.108Z,23.88
2022-08-20T05:59:30.256Z,23.83
2022-08-20T06:04:34.549Z,23.74
2022-08-20T06:09:37.762Z,23.69
2022-08-20T06:14:41.074Z,23.83
2022-08-20T06:19:47.076Z,23.99
2022-08-20T06:24:50.380Z,24.00
2022-08-20T06:29:54.416Z,24.06
2022-08-20T06:34:57.716Z,24.05
2022-08-20T06:40:15.405Z,24.06
2022-08-20T06:45:24.701Z,24.22
2022-08-20T06:50:32.873Z,24.42
2022-08-20T06:55:41.295Z,24.53
2022-08-20T07:00:52.120Z,24.84
2022-08-20T07:05:55.464Z,25.17
2022-08-20T07:10:59.794Z,25.40
2022-08-20T07:16:05.717Z,25.47
2022-08-20T07:21:09.167Z,25.53
2022-08-20T07:26:13.511Z,25.52
2022-08-20T07:31:36.076Z,25.49
2022-08-20T07:36:40.501Z,25.60
2022-08-20T07:41:43.979Z,25.85
2022-08-20T07:47:00.536Z,26.04
2022-08-20T07:52:05.432Z,26.25
2022-08-20T07:57:12.203Z,26.57
2022-08-20T08:02:15.491Z,26.78
2022-08-20T08:07:19.124Z,26.78
2022-08-20T08:12:23.687Z,26.70
2022-08-20T08:17:31.371Z,26.65
2022-08-20T08:22:34.775Z,26.66
2022-08-20T08:27:38.426Z,26.88
2022-08-20T08:33:01.670Z,26.94
2022-08-20T08:38:04.888Z,27.02
2022-08-20T08:43:13.913Z,27.14
2022-08-20T08:48:21.487Z,27.31
2022-08-20T08:53:37.342Z,27.54
2022-08-20T08:58:42.195Z,27.87
2022-08-20T09:03:51.320Z,28.29
2022-08-20T09:09:01.231Z,28.66
2022-08-20T09:14:04.413Z,28.63
2022-08-20T09:19:07.668Z,28.52
2022-08-20T09:24:10.928Z,28.64
2022-08-20T09:29:14.596Z,28.98
2022-08-20T09:34:18.172Z,29.30
2022-08-20T09:39:21.372Z,29.67
2022-08-20T09:44:24.412Z,29.80
2022-08-20T09:49:27.695Z,29.84
2022-08-20T09:54:33.894Z,29.71
2022-08-20T09:59:37.798Z,29.42
2022-08-20T10:04:40.915Z,29.40
2022-08-20T10:09:44.725Z,29.41
2022-08-20T10:14:47.963Z,29.42
2022-08-20T10:19:51.243Z,29.52
2022-08-20T10:24:54.696Z,29.59
2022-08-20T10:29:57.863Z,29.67
2022-08-20T10:35:01.194Z,29.67
2022-08-20T10:40:06.640Z,29.57
2022-08-20T10:45:16.146Z,29.44
2022-08-20T10:50:20.278Z,29.49
2022-08-20T10:55:23.454Z,29.66
2022-08-20T11:00:26.739Z,29.68
2022-08-20T11:05:29.974Z,29.78
2022-08-20T11:10:36.043Z,29.99
2022-08-20T11:15:43.931Z,30.30
2022-08-20T11:20:47.155Z,30.63
2022-08-20T11:25:51.219Z,31.05
2022-08-20T11:30:54.399Z,31.46
2022-08-20T11:35:57.726Z,31.89
2022-08-20T11:41:01.128Z,32.64
2022-08-20T11:46:04.573Z,32.94
2022-08-20T11:51:07.738Z,32.71
2022-08-20T11:56:13.747Z,32.46
2022-08-20T12:01:17.126Z,32.29
2022-08-20T12:06:20.558Z,32.24
2022-08-20T12:11:23.643Z,31.96
2022-08-20T12:16:27.079Z,31.33
2022-08-20T12:21:32.458Z,30.86
2022-08-20T12:26:35.851Z,30.41
2022-08-20T12:31:39.035Z,30.18
2022-08-20T12:36:42.257Z,30.28
2022-08-20T12:41:45.557Z,30.51
2022-08-20T12:46:48.769Z,30.57
2022-08-20T12:51:51.907Z,30.46
2022-08-20T12:56:55.179Z,30.37
2022-08-20T13:01:59.683Z,30.14
2022-08-20T13:07:17.994Z,30.27
2022-08-20T13:12:21.197Z,30.43
2022-08-20T13:17:38.440Z,30.51
2022-08-20T13:22:43.421Z,30.33
2022-08-20T13:27:46.795Z,30.44
2022-08-20T13:32:50.133Z,31.03
2022-08-20T13:37:53.822Z,31.58
2022-08-20T13:42:57.607Z,31.72
2022-08-20T13:48:01.199Z,31.64
2022-08-20T13:53:04.994Z,31.62
2022-08-20T13:58:10.475Z,31.74
2022-08-20T14:03:13.859Z,31.48
2022-08-20T14:08:24.978Z,31.19
2022-08-20T14:13:28.675Z,31.11
2022-08-20T14:18:32.088Z,31.03
2022-08-20T14:23:36.159Z,30.93
2022-08-20T14:28:40.348Z,30.76
2022-08-20T14:33:44.792Z,30.50
2022-08-20T14:38:48.207Z,29.88
2022-08-20T14:43:51.414Z,29.38
2022-08-20T14:48:54.618Z,29.03
2022-08-20T14:53:57.846Z,28.71
2022-08-20T14:59:01.211Z,28.26
2022-08-20T15:04:04.476Z,28.46
2022-08-20T15:09:07.993Z,28.41
2022-08-20T15:14:11.785Z,28.17
2022-08-20T15:19:18.374Z,27.94
2022-08-20T15:24:22.095Z,27.71
2022-08-20T15:29:25.408Z,27.61
2022-08-20T15:34:28.828Z,27.57
2022-08-20T15:39:32.334Z,27.45
2022-08-20T15:44:37.035Z,27.61
2022-08-20T15:49:40.695Z,27.78
2022-08-20T15:54:45.751Z,27.88
2022-08-20T16:00:16.106Z,28.10
2022-08-20T16:05:37.436Z,28.09
2022-08-20T16:11:17.601Z,27.89
2022-08-20T16:16:42.434Z,27.83
2022-08-20T16:21:47.399Z,27.36
2022-08-20T16:27:14.848Z,26.81
2022-08-20T16:32:47.742Z,26.67
2022-08-20T16:38:32.963Z,26.57
2022-08-20T16:44:05.232Z,26.41
2022-08-20T16:49:14.202Z,26.28
2022-08-20T16:54:19.868Z,26.05
2022-08-20T16:59:34.121Z,25.84
2022-08-20T17:04:59.455Z,25.93
2022-08-20T17:10:26.830Z,25.94
2022-08-20T17:15:35.499Z,25.84
2022-08-20T17:20:45.544Z,25.69
2022-08-20T17:26:15.348Z,25.38
2022-08-20T17:31:42.314Z,25.07
2022-08-20T17:37:19.522Z,25.05
2022-08-20T17:42:27.102Z,25.04
2022-08-20T17:47:37.930Z,25.26
2022-08-20T17:53:01.919Z,25.07
2022-08-20T17:58:14.012Z,24.85
2022-08-20T18:03:26.571Z,24.74
2022-08-20T18:08:49.639Z,24.87
2022-08-20T18:14:33.803Z,25.18
2022-08-20T18:20:37.848Z,25.18
2022-08-20T18:25:51.006Z,24.74
2022-08-20T18:31:00.266Z,24.78
2022-08-20T18:36:30.593Z,24.69
2022-08-20T18:41:38.699Z,24.57
2022-08-20T18:46:59.361Z,24.50
2022-08-20T18:52:23.627Z,24.40
2022-08-20T18:57:41.628Z,24.09
2022-08-20T19:03:07.517Z,23.92
2022-08-20T19:08:18.560Z,23.83
2022-08-20T19:14:09.235Z,23.99
2022-08-20T19:19:21.970Z,24.27
2022-08-20T19:24:31.191Z,24.34
2022-08-20T19:29:50.233Z,24.10
2022-08-20T19:35:07.494Z,24.12
2022-08-20T19:40:46.277Z,23.86
2022-08-20T19:45:54.895Z,23.93
2022-08-20T19:51:23.510Z,23.87
2022-08-20T19:56:28.869Z,23.48
2022-08-20T20:01:34.745Z,23.06
2022-08-20T20:06:50.263Z,22.89
2022-08-20T20:11:59.076Z,22.81
2022-08-20T20:17:07.657Z,22.78
2022-08-20T20:22:29.969Z,22.79
2022-08-20T20:27:36.787Z,22.75
2022-08-20T20:32:48.141Z,22.72
2022-08-20T20:38:07.466Z,22.55
2022-08-20T20:43:24.284Z,22.41
2022-08-20T20:48:52.312Z,22.02
2022-08-20T20:54:50.257Z,21.59
2022-08-20T21:02:18.042Z,21.43
2022-08-20T21:06:50.343Z,21.29
2022-08-20T21:11:53.681Z,21.12
2022-08-20T21:17:02.394Z,21.12
2022-08-20T21:22:06.134Z,21.29
2022-08-20T21:27:13.546Z,21.35
2022-08-20T21:32:18.247Z,21.35
2022-08-20T21:37:21.475Z,21.32
2022-08-20T21:42:29.000Z,21.16
2022-08-20T21:47:33.429Z,21.22
2022-08-20T21:52:38.631Z,21.43
2022-08-20T21:57:53.997Z,21.52
2022-08-20T22:02:58.749Z,21.61
2022-08-20T22:08:03.075Z,21.67
2022-08-20T22:13:06.878Z,21.61
2022-08-20T22:18:10.288Z,21.45
2022-08-20T22:23:14.016Z,21.58
2022-08-20T22:28:19.430Z,21.69
2022-08-20T22:33:24.013Z,21.62
2022-08-20T22:38:34.737Z,21.51
2022-08-20T22:43:45.050Z,21.51
2022-08-20T22:49:05.569Z,21.63
2022-08-20T22:54:22.305Z,21.66
2022-08-20T22:59:25.609Z,21.62
2022-08-20T23:04:34.061Z,21.65
2022-08-20T23:09:39.270Z,21.65
2022-08-20T23:14:42.541Z,21.60
2022-08-20T23:19:48.711Z,21.66
2022-08-20T23:24:52.436Z,21.76
2022-08-20T23:29:55.932Z,21.79
2022-08-20T23:34:59.345Z,21.86
2022-08-20T23:40:02.819Z,21.86
2022-08-20T23:45:08.655Z,21.90
2022-08-20T23:50:15.888Z,21.93
2022-08-20T23:55:21.106Z,21.87
